Time;durP1;ratioP1;P1;durP2;ratioP2;P2;SDS_P1;SDS_P2;PMS_P1;PMS_P2;Temp;Humidity;BMP_temperature;BMP_pressure;BME280_temperature;BME280_humidity;BME280_pressure;Samples;Min_cycle;Max_cycle;Signal;HPM_P1;HPM_P2
2022/08/09 00:01:25;;;;;;;0.10;0.10;;;14.30;99.90;;;;;;5037238;28;20186;-89
2022/08/09 00:03:50;;;;;;;0.10;0.10;;;14.30;99.90;;;;;;5048180;28;20447;-89
2022/08/09 00:06:16;;;;;;;0.10;0.10;;;14.30;99.90;;;;;;5043819;28;20181;-89
2022/08/09 00:08:47;;;;;;;0.10;0.10;;;14.20;99.90;;;;;;5068045;28;20189;-89
2022/08/09 00:11:13;;;;;;;0.10;0.10;;;14.10;99.90;;;;;;5071454;28;20213;-89
2022/08/09 00:13:38;;;;;;;0.10;0.10;;;14.10;99.90;;;;;;5067252;28;21014;-89
2022/08/09 00:16:04;;;;;;;0.10;0.10;;;14.00;99.90;;;;;;5039383;28;20440;-89
2022/08/09 00:18:31;;;;;;;0.10;0.10;;;14.00;99.90;;;;;;5066043;28;20595;-89
2022/08/09 00:20:56;;;;;;;0.10;0.10;;;14.00;99.90;;;;;;5070050;28;20215;-89
2022/08/09 00:23:22;;;;;;;0.10;0.10;;;14.00;99.90;;;;;;5066690;28;20480;-90
2022/08/09 00:25:47;;;;;;;0.10;0.10;;;13.90;99.90;;;;;;5071760;28;20255;-89
2022/08/09 00:28:13;;;;;;;0.10;0.10;;;13.90;99.90;;;;;;5067221;28;20207;-89
2022/08/09 00:30:38;;;;;;;0.10;0.10;;;13.90;99.90;;;;;;5061662;28;20218;-89
2022/08/09 00:33:04;;;;;;;0.10;0.10;;;13.90;99.90;;;;;;5063980;28;20784;-89
2022/08/09 00:35:29;;;;;;;0.10;0.10;;;14.00;99.90;;;;;;5056699;28;20182;-89
2022/08/09 00:37:55;;;;;;;0.10;0.10;;;14.00;99.90;;;;;;5063340;28;20190;-88
2022/08/09 00:40:21;;;;;;;0.10;0.10;;;14.00;99.90;;;;;;5066706;28;20260;-89
2022/08/09 00:42:46;;;;;;;0.10;0.10;;;13.90;99.90;;;;;;5062987;28;20194;-89
2022/08/09 00:45:12;;;;;;;0.10;0.10;;;13.90;99.90;;;;;;5062604;28;20268;-88
2022/08/09 00:47:37;;;;;;;0.10;0.10;;;13.90;99.90;;;;;;5067809;28;20232;-89
2022/08/09 00:50:03;;;;;;;0.10;0.10;;;13.90;99.90;;;;;;5064630;28;20190;-88
2022/08/09 00:52:29;;;;;;;0.10;0.10;;;13.90;99.90;;;;;;5066882;28;20336;-88
2022/08/09 00:54:55;;;;;;;0.10;0.10;;;13.90;99.90;;;;;;5068983;28;20443;-89
2022/08/09 00:57:22;;;;;;;0.10;0.10;;;13.90;99.90;;;;;;5058971;28;20460;-88
2022/08/09 00:59:48;;;;;;;0.10;0.10;;;13.90;99.90;;;;;;5062342;28;20441;-89
2022/08/09 01:02:20;;;;;;;0.10;0.10;;;13.90;99.90;;;;;;5065087;28;20540;-88
2022/08/09 01:05:11;;;;;;;0.10;0.10;;;13.90;99.90;;;;;;5048420;28;20829;-88
2022/08/09 01:07:51;;;;;;;0.10;0.10;;;13.90;99.90;;;;;;5044219;28;20531;-89
2022/08/09 01:10:47;;;;;;;0.10;0.10;;;13.70;99.90;;;;;;5065106;28;20484;-88
2022/08/09 01:13:30;;;;;;;0.10;0.10;;;13.70;99.90;;;;;;5068870;28;20531;-89
2022/08/09 01:15:57;;;;;;;0.10;0.10;;;13.70;99.90;;;;;;5043455;28;20444;-88
2022/08/09 01:18:27;;;;;;;0.10;0.10;;;13.70;99.90;;;;;;5042317;28;20447;-89
2022/08/09 01:21:18;;;;;;;0.17;0.17;;;13.70;99.90;;;;;;5047859;28;20929;-89
2022/08/09 01:23:56;;;;;;;0.10;0.10;;;13.70;99.90;;;;;;5063553;28;20472;-89
2022/08/09 01:27:00;;;;;;;0.10;0.10;;;13.60;99.90;;;;;;5065819;28;20440;-88
2022/08/09 01:29:41;;;;;;;0.10;0.10;;;13.60;99.90;;;;;;5059510;28;20534;-88
2022/08/09 01:32:10;;;;;;;0.10;0.10;;;13.60;99.90;;;;;;5064643;28;20460;-89
2022/08/09 01:34:37;;;;;;;0.10;0.10;;;13.60;99.90;;;;;;5065713;28;20476;-87
2022/08/09 01:37:06;;;;;;;0.10;0.10;;;13.40;99.90;;;;;;5061871;28;20508;-88
2022/08/09 01:39:34;;;;;;;0.10;0.10;;;13.40;99.90;;;;;;5068973;28;20448;-88
2022/08/09 01:42:02;;;;;;;0.10;0.10;;;13.40;99.90;;;;;;5052099;28;20563;-88
2022/08/09 01:44:29;;;;;;;0.10;0.10;;;13.40;99.90;;;;;;5064268;28;20561;-88
2022/08/09 01:46:58;;;;;;;0.10;0.10;;;13.30;99.90;;;;;;5063978;28;21003;-89
2022/08/09 01:49:25;;;;;;;0.10;0.10;;;13.30;99.90;;;;;;5053142;28;20492;-88
2022/08/09 01:52:04;;;;;;;0.20;0.20;;;13.40;99.90;;;;;;5069478;28;20561;-88
2022/08/09 01:54:34;;;;;;;0.10;0.10;;;13.40;99.90;;;;;;5068990;28;20448;-89
2022/08/09 01:57:10;;;;;;;0.10;0.10;;;13.40;99.90;;;;;;5056997;28;20540;-90
2022/08/09 01:59:38;;;;;;;0.10;0.10;;;13.40;99.90;;;;;;5068575;28;20448;-89
2022/08/09 02:02:06;;;;;;;0.10;0.10;;;13.40;99.90;;;;;;5049376;28;20483;-89
2022/08/09 02:04:33;;;;;;;0.10;0.10;;;13.40;99.90;;;;;;5062208;28;20498;-88
2022/08/09 02:07:14;;;;;;;0.10;0.10;;;13.30;99.90;;;;;;5068240;28;20448;-89
2022/08/09 02:09:50;;;;;;;0.10;0.10;;;13.30;99.90;;;;;;5051030;28;21685;-89
2022/08/09 02:12:19;;;;;;;0.10;0.10;;;13.30;99.90;;;;;;5066615;28;20485;-88
2022/08/09 02:14:48;;;;;;;0.10;0.10;;;13.30;99.90;;;;;;5065955;28;20455;-89
2022/08/09 02:17:15;;;;;;;0.10;0.10;;;13.20;99.90;;;;;;5066723;28;20486;-89
2022/08/09 02:19:41;;;;;;;0.10;0.10;;;13.30;99.90;;;;;;5064118;28;20957;-89
2022/08/09 02:22:28;;;;;;;0.10;0.10;;;13.30;99.90;;;;;;5067494;28;20935;-89
2022/08/09 02:24:57;;;;;;;0.10;0.10;;;13.20;99.90;;;;;;5070526;28;20490;-89
2022/08/09 02:27:26;;;;;;;0.10;0.10;;;13.30;99.90;;;;;;5052100;28;20535;-89
2022/08/09 02:29:54;;;;;;;0.10;0.10;;;13.20;99.90;;;;;;5070870;28;21020;-89
2022/08/09 02:32:23;;;;;;;0.20;0.20;;;13.20;99.90;;;;;;5075235;28;20490;-89
2022/08/09 02:35:04;;;;;;;0.10;0.10;;;13.20;99.90;;;;;;5070739;28;20529;-90
2022/08/09 02:37:31;;;;;;;0.10;0.10;;;13.10;99.90;;;;;;5068915;28;20493;-89
2022/08/09 02:40:07;;;;;;;0.10;0.10;;;13.10;99.90;;;;;;5065886;28;20459;-89
2022/08/09 02:42:39;;;;;;;0.10;0.10;;;13.10;99.90;;;;;;5070101;28;20523;-89
2022/08/09 02:45:10;;;;;;;0.10;0.10;;;13.10;99.90;;;;;;5050179;28;20459;-89
2022/08/09 02:47:37;;;;;;;0.10;0.10;;;13.00;99.90;;;;;;5050481;28;20450;-89
2022/08/09 02:50:11;;;;;;;0.10;0.10;;;13.00;99.90;;;;;;5063085;28;20447;-88
2022/08/09 02:52:41;;;;;;;0.10;0.10;;;13.00;99.90;;;;;;5066032;28;20473;-88
2022/08/09 02:55:09;;;;;;;0.10;0.10;;;13.00;99.90;;;;;;5068940;28;20866;-89
2022/08/09 02:57:37;;;;;;;0.10;0.10;;;13.00;99.90;;;;;;5067587;28;21000;-89
2022/08/09 03:00:07;;;;;;;0.10;0.10;;;13.00;99.90;;;;;;5046413;28;20452;-89
2022/08/09 03:02:34;;;;;;;0.10;0.10;;;13.00;99.90;;;;;;5069747;28;20876;-88
2022/08/09 03:05:01;;;;;;;0.10;0.10;;;12.90;99.90;;;;;;5066231;28;20459;-90
2022/08/09 03:07:27;;;;;;;0.10;0.10;;;12.90;99.90;;;;;;5065898;28;21426;-89
2022/08/09 03:09:56;;;;;;;0.10;0.10;;;12.90;99.90;;;;;;5055754;28;20472;-89
2022/08/09 03:12:23;;;;;;;0.10;0.10;;;12.90;99.90;;;;;;5049295;28;20491;-89
2022/08/09 03:14:49;;;;;;;0.10;0.10;;;13.00;99.90;;;;;;5061227;28;20452;-89
2022/08/09 03:17:15;;;;;;;0.10;0.10;;;12.90;99.90;;;;;;5064288;28;20462;-89
2022/08/09 03:19:41;;;;;;;0.20;0.20;;;12.90;99.90;;;;;;5063978;28;20484;-90
2022/08/09 03:22:09;;;;;;;0.10;0.10;;;12.80;99.90;;;;;;5052987;28;20464;-90
2022/08/09 03:24:34;;;;;;;0.20;0.20;;;12.80;99.90;;;;;;5071395;28;20539;-90
2022/08/09 03:27:02;;;;;;;0.20;0.20;;;12.80;99.90;;;;;;5066114;28;20889;-90
2022/08/09 03:29:29;;;;;;;0.20;0.20;;;12.70;99.90;;;;;;5072089;28;20194;-90
2022/08/09 03:31:55;;;;;;;0.20;0.20;;;12.80;99.90;;;;;;5068085;28;20516;-89
2022/08/09 03:34:20;;;;;;;0.20;0.20;;;12.70;99.90;;;;;;5051576;28;20456;-89
2022/08/09 03:36:46;;;;;;;0.10;0.10;;;12.70;99.90;;;;;;5065579;28;20518;-90
2022/08/09 03:39:11;;;;;;;0.20;0.20;;;12.70;99.90;;;;;;5065917;28;20187;-90
2022/08/09 03:41:37;;;;;;;0.17;0.17;;;12.60;99.90;;;;;;5046359;28;20178;-90
2022/08/09 03:44:03;;;;;;;0.10;0.10;;;12.60;99.90;;;;;;5066703;28;20224;-90
2022/08/09 03:46:28;;;;;;;0.10;0.10;;;12.60;99.90;;;;;;5047031;28;20665;-90
2022/08/09 03:48:57;;;;;;;0.10;0.10;;;12.60;99.90;;;;;;5045413;28;20193;-88
2022/08/09 03:51:25;;;;;;;0.10;0.10;;;12.60;99.90;;;;;;5067617;28;20189;-89
2022/08/09 03:53:52;;;;;;;0.10;0.10;;;12.60;99.90;;;;;;5045573;28;20548;-89
2022/08/09 03:56:17;;;;;;;0.10;0.10;;;12.60;99.90;;;;;;5065012;28;20463;-90
2022/08/09 03:58:43;;;;;;;0.10;0.10;;;12.60;99.90;;;;;;5065304;28;20483;-89
2022/08/09 04:01:10;;;;;;;0.10;0.10;;;12.70;99.90;;;;;;5070240;28;20186;-90
2022/08/09 04:03:37;;;;;;;0.10;0.10;;;12.70;99.90;;;;;;5066630;28;20221;-91
2022/08/09 04:06:03;;;;;;;0.10;0.10;;;12.60;99.90;;;;;;5062384;28;20471;-90
2022/08/09 04:08:28;;;;;;;0.10;0.10;;;12.50;99.90;;;;;;5063476;28;21400;-88
2022/08/09 04:10:54;;;;;;;0.10;0.10;;;12.50;99.90;;;;;;5070583;28;20475;-87
2022/08/09 04:13:19;;;;;;;0.10;0.10;;;12.60;99.90;;;;;;5044350;28;20718;-90
2022/08/09 04:15:45;;;;;;;0.10;0.10;;;12.60;99.90;;;;;;5046166;28;20178;-90
2022/08/09 04:18:12;;;;;;;0.13;0.13;;;12.60;99.90;;;;;;5065240;28;20243;-91
2022/08/09 04:20:37;;;;;;;0.20;0.20;;;12.60;99.90;;;;;;5071268;28;20182;-90
2022/08/09 04:23:04;;;;;;;0.20;0.20;;;12.60;99.90;;;;;;5051410;28;20447;-91
2022/08/09 04:25:30;;;;;;;0.10;0.10;;;12.50;99.90;;;;;;5070034;28;20185;-90
2022/08/09 04:27:56;;;;;;;0.20;0.20;;;12.50;99.90;;;;;;5052349;28;20437;-91
2022/08/09 04:30:21;;;;;;;0.10;0.10;;;12.60;99.90;;;;;;5069176;28;20218;-91
2022/08/09 04:32:48;;;;;;;0.10;0.10;;;12.60;99.90;;;;;;5052600;28;20827;-91
2022/08/09 04:35:14;;;;;;;0.10;0.10;;;12.60;99.90;;;;;;5063395;28;20483;-90
2022/08/09 04:37:40;;;;;;;0.10;0.10;;;12.60;99.90;;;;;;5063692;28;20448;-91
2022/08/09 04:40:07;;;;;;;0.10;0.10;;;12.60;99.90;;;;;;5069571;28;20455;-90
2022/08/09 04:42:33;;;;;;;0.10;0.10;;;12.70;99.90;;;;;;5071238;28;20181;-90
2022/08/09 04:45:00;;;;;;;0.20;0.20;;;12.70;99.90;;;;;;5052595;28;20993;-89
2022/08/09 04:47:27;;;;;;;0.10;0.10;;;12.70;99.90;;;;;;5071547;28;20408;-91
2022/08/09 04:49:54;;;;;;;0.20;0.20;;;12.80;99.90;;;;;;5052611;28;20432;-92
2022/08/09 04:52:24;;;;;;;0.10;0.10;;;12.80;99.90;;;;;;5066780;28;20479;-90
2022/08/09 04:54:52;;;;;;;0.10;0.10;;;12.80;99.90;;;;;;5048325;28;20448;-90
2022/08/09 04:57:19;;;;;;;0.10;0.10;;;12.90;99.90;;;;;;5065230;28;20456;-91
2022/08/09 04:59:45;;;;;;;0.10;0.10;;;13.00;99.90;;;;;;5070092;28;20447;-90
2022/08/09 05:02:10;;;;;;;0.10;0.10;;;13.00;99.90;;;;;;5064635;28;20444;-90
2022/08/09 05:04:36;;;;;;;0.10;0.10;;;13.10;99.90;;;;;;5043468;28;20884;-89
2022/08/09 05:07:01;;;;;;;0.20;0.20;;;13.10;99.90;;;;;;5068768;28;20696;-90
2022/08/09 05:09:29;;;;;;;0.10;0.10;;;13.20;99.90;;;;;;5068618;28;20312;-90
2022/08/09 05:11:55;;;;;;;0.10;0.10;;;13.20;99.90;;;;;;5044414;28;20229;-90
2022/08/09 05:14:21;;;;;;;0.10;0.10;;;13.20;99.90;;;;;;5060808;28;20458;-88
2022/08/09 05:16:46;;;;;;;0.10;0.10;;;13.20;99.90;;;;;;5046060;28;20436;-88
2022/08/09 05:19:13;;;;;;;0.10;0.10;;;13.40;99.90;;;;;;5068353;28;20265;-88
2022/08/09 05:21:39;;;;;;;0.10;0.10;;;13.50;99.90;;;;;;5062394;28;20240;-88
2022/08/09 05:24:05;;;;;;;0.10;0.10;;;13.50;99.90;;;;;;5073128;28;20914;-89
2022/08/09 05:26:31;;;;;;;0.10;0.10;;;13.60;99.90;;;;;;5070832;28;20442;-88
2022/08/09 05:28:57;;;;;;;0.10;0.10;;;13.70;99.90;;;;;;5066947;28;20244;-88
2022/08/09 05:31:22;;;;;;;0.10;0.10;;;13.70;99.90;;;;;;5060805;28;20456;-89
2022/08/09 05:33:48;;;;;;;0.10;0.10;;;13.80;99.90;;;;;;5050043;28;20612;-92
2022/08/09 05:36:14;;;;;;;0.10;0.10;;;13.90;99.90;;;;;;5067941;28;20185;-90
2022/08/09 05:38:39;;;;;;;0.10;0.10;;;14.00;99.90;;;;;;5051357;28;20197;-91
2022/08/09 05:41:05;;;;;;;0.10;0.10;;;14.00;99.90;;;;;;5066374;28;20212;-88
2022/08/09 05:43:34;;;;;;;0.10;0.10;;;14.20;99.90;;;;;;5047777;28;20529;-88
2022/08/09 05:46:00;;;;;;;0.10;0.10;;;14.30;99.90;;;;;;5061739;28;20268;-88
2022/08/09 05:48:26;;;;;;;0.10;0.10;;;14.40;99.90;;;;;;5067616;28;20948;-91
2022/08/09 05:50:51;;;;;;;0.10;0.10;;;14.50;99.90;;;;;;5061253;28;20498;-88
2022/08/09 05:53:17;;;;;;;0.10;0.10;;;14.70;99.90;;;;;;5053647;28;20476;-91
2022/08/09 05:55:43;;;;;;;0.10;0.10;;;14.80;99.90;;;;;;5066270;28;20186;-88
2022/08/09 05:58:08;;;;;;;0.10;0.10;;;14.90;99.90;;;;;;5065365;28;20213;-90
2022/08/09 06:00:34;;;;;;;0.10;0.10;;;15.00;99.90;;;;;;5057037;28;20197;-89
2022/08/09 06:03:02;;;;;;;0.10;0.10;;;15.10;99.90;;;;;;5071714;28;20193;-88
2022/08/09 06:05:30;;;;;;;0.10;0.10;;;15.30;99.90;;;;;;5073584;28;20181;-90
2022/08/09 06:07:55;;;;;;;0.10;0.10;;;15.40;99.90;;;;;;5071908;28;20448;-89
2022/08/09 06:10:36;;;;;;;0.10;0.10;;;15.50;99.90;;;;;;5072909;28;20484;-89
2022/08/09 06:13:03;;;;;;;0.10;0.10;;;15.60;99.90;;;;;;5069319;28;20221;-90
2022/08/09 06:15:28;;;;;;;0.10;0.10;;;15.80;99.90;;;;;;5041764;28;20501;-89
2022/08/09 06:17:55;;;;;;;0.10;0.10;;;15.90;99.90;;;;;;5066507;28;20440;-89
2022/08/09 06:20:20;;;;;;;0.10;0.10;;;16.00;99.90;;;;;;5072384;28;20251;-89
2022/08/09 06:22:46;;;;;;;0.10;0.10;;;16.10;99.90;;;;;;5068687;28;21186;-88
2022/08/09 06:25:11;;;;;;;0.10;0.10;;;16.20;99.90;;;;;;5068883;28;20185;-90
2022/08/09 06:27:37;;;;;;;0.10;0.10;;;16.40;99.90;;;;;;5068885;28;20664;-88
2022/08/09 06:30:03;;;;;;;0.10;0.10;;;16.50;99.90;;;;;;5069510;28;20203;-89
2022/08/09 06:32:28;;;;;;;0.10;0.10;;;16.60;99.90;;;;;;5070570;28;20263;-86
2022/08/09 06:34:54;;;;;;;0.10;0.10;;;16.80;99.90;;;;;;5066030;28;20186;-87
2022/08/09 06:37:19;;;;;;;0.10;0.10;;;16.90;99.90;;;;;;5068923;28;20186;-89
2022/08/09 06:39:45;;;;;;;0.10;0.10;;;17.00;99.90;;;;;;5063893;28;20245;-87
2022/08/09 06:42:10;;;;;;;0.10;0.10;;;17.00;99.90;;;;;;5046587;28;20178;-89
2022/08/09 06:44:36;;;;;;;0.10;0.10;;;17.20;99.90;;;;;;5068398;28;20791;-85
2022/08/09 06:47:02;;;;;;;0.10;0.10;;;17.20;99.90;;;;;;5041760;28;20181;-87
2022/08/09 06:49:27;;;;;;;0.10;0.10;;;17.30;99.90;;;;;;5048547;28;20190;-87
2022/08/09 06:51:53;;;;;;;0.10;0.10;;;17.40;99.90;;;;;;5057420;28;20493;-87
2022/08/09 06:54:18;;;;;;;0.10;0.10;;;17.60;99.90;;;;;;5053988;28;20935;-87
2022/08/09 06:56:44;;;;;;;0.10;0.10;;;17.70;99.90;;;;;;5054002;28;20204;-87
2022/08/09 06:59:10;;;;;;;0.10;0.10;;;17.80;99.90;;;;;;5070850;28;20234;-88
2022/08/09 07:01:35;;;;;;;0.10;0.10;;;17.90;99.90;;;;;;5072283;28;20455;-87
2022/08/09 07:04:01;;;;;;;0.10;0.10;;;17.90;99.90;;;;;;5053832;28;20181;-89
2022/08/09 07:06:27;;;;;;;0.10;0.10;;;18.10;99.90;;;;;;5071451;28;20660;-88
2022/08/09 07:08:52;;;;;;;0.10;0.10;;;18.20;99.90;;;;;;5051463;28;20182;-85
2022/08/09 07:11:18;;;;;;;0.10;0.10;;;18.30;99.90;;;;;;5071948;28;20220;-91
2022/08/09 07:13:43;;;;;;;0.10;0.10;;;18.40;99.90;;;;;;5071706;28;20209;-89
2022/08/09 07:16:09;;;;;;;0.10;0.10;;;18.40;99.90;;;;;;5072460;28;20193;-89
2022/08/09 07:18:34;;;;;;;0.10;0.10;;;18.50;99.90;;;;;;5070252;28;20626;-93
2022/08/09 07:21:00;;;;;;;0.10;0.10;;;18.60;99.90;;;;;;5053647;28;20195;-90
2022/08/09 07:23:25;;;;;;;0.10;0.10;;;18.60;99.90;;;;;;5072002;28;20185;-94
2022/08/09 07:25:51;;;;;;;0.10;0.00;;;18.70;99.90;;;;;;5070940;28;20204;-92
2022/08/09 07:28:16;;;;;;;0.10;0.10;;;18.80;99.90;;;;;;5068761;28;20204;-93
2022/08/09 07:30:42;;;;;;;0.10;0.10;;;18.80;99.90;;;;;;5070585;28;20190;-93
2022/08/09 07:33:07;;;;;;;0.10;0.10;;;18.90;99.90;;;;;;5048615;28;20231;-93
2022/08/09 07:35:33;;;;;;;0.10;0.10;;;19.00;99.90;;;;;;5076091;28;20208;-92
2022/08/09 07:37:58;;;;;;;0.10;0.10;;;19.00;99.90;;;;;;5070039;28;20194;-94
2022/08/09 07:40:24;;;;;;;0.10;0.10;;;19.10;99.90;;;;;;5060129;28;22041;-92
2022/08/09 07:42:54;;;;;;;0.10;0.10;;;19.20;99.90;;;;;;5058250;28;20197;-93
2022/08/09 07:45:24;;;;;;;0.10;0.00;;;19.20;99.90;;;;;;5053854;28;20197;-95
2022/08/09 07:47:51;;;;;;;0.10;0.10;;;19.40;99.90;;;;;;5058479;28;20445;-95
2022/08/09 07:50:17;;;;;;;0.10;0.10;;;19.50;99.90;;;;;;5050825;28;20549;-94
2022/08/09 07:52:43;;;;;;;0.10;0.10;;;19.70;99.90;;;;;;5070906;28;20518;-96
2022/08/09 07:55:08;;;;;;;0.10;0.10;;;19.60;99.90;;;;;;5070138;28;20467;-95
2022/08/09 07:57:34;;;;;;;0.10;0.00;;;19.80;99.90;;;;;;5064593;28;20690;-93
2022/08/09 07:59:59;;;;;;;0.10;0.10;;;20.00;99.90;;;;;;5073339;28;20203;-96
2022/08/09 08:02:25;;;;;;;0.10;0.10;;;20.20;99.90;;;;;;5071265;28;20192;-92
2022/08/09 08:04:50;;;;;;;0.10;0.00;;;20.00;99.90;;;;;;5046079;28;20473;-91
2022/08/09 08:07:16;;;;;;;0.10;0.10;;;20.10;99.90;;;;;;5069107;28;20181;-87
2022/08/09 08:09:41;;;;;;;0.10;0.00;;;20.60;99.90;;;;;;5069230;28;20241;-88
2022/08/09 08:12:07;;;;;;;0.10;0.00;;;20.80;99.90;;;;;;5066189;28;20221;-89
2022/08/09 08:14:33;;;;;;;0.10;0.00;;;20.80;99.90;;;;;;5061603;28;20202;-85
2022/08/09 08:16:59;;;;;;;0.10;0.00;;;20.70;99.90;;;;;;5068020;28;20956;-88
2022/08/09 08:19:24;;;;;;;0.10;0.00;;;20.90;99.90;;;;;;5058625;28;20227;-89
2022/08/09 08:21:51;;;;;;;0.10;0.00;;;20.90;99.90;;;;;;5050688;28;20696;-89
2022/08/09 08:24:17;;;;;;;0.10;0.00;;;20.90;99.90;;;;;;5068667;28;20213;-88
2022/08/09 08:26:42;;;;;;;0.10;0.00;;;21.00;99.90;;;;;;5068889;28;20475;-88
2022/08/09 08:29:08;;;;;;;0.10;0.00;;;21.20;99.90;;;;;;5049154;28;20186;-91
2022/08/09 08:31:33;;;;;;;0.10;0.00;;;21.40;99.90;;;;;;5062398;28;20213;-90
2022/08/09 08:33:59;;;;;;;0.10;0.00;;;21.50;99.90;;;;;;5052442;28;20244;-88
2022/08/09 08:36:24;;;;;;;0.10;0.00;;;21.50;99.90;;;;;;5067687;28;20184;-92
2022/08/09 08:38:50;;;;;;;0.10;0.00;;;21.30;99.90;;;;;;5070810;28;20182;-90
2022/08/09 08:41:15;;;;;;;0.10;0.00;;;21.20;99.90;;;;;;5086613;28;20182;-90
2022/08/09 08:43:41;;;;;;;0.10;0.00;;;21.10;99.90;;;;;;5036285;28;20281;-90
2022/08/09 08:46:11;;;;;;;0.10;0.00;;;20.90;99.90;;;;;;5049796;28;20197;-88
2022/08/09 08:48:38;;;;;;;0.10;0.00;;;20.70;99.90;;;;;;5065368;28;20497;-85
2022/08/09 08:51:05;;;;;;;0.10;0.00;;;20.50;99.90;;;;;;5069913;28;20432;-90
2022/08/09 08:53:31;;;;;;;0.10;0.00;;;20.50;99.90;;;;;;5069761;28;20480;-89
2022/08/09 08:55:57;;;;;;;0.10;0.00;;;20.60;99.90;;;;;;5052051;28;20477;-87
2022/08/09 08:58:23;;;;;;;0.10;0.00;;;21.20;99.90;;;;;;5072728;28;20230;-88
2022/08/09 09:00:49;;;;;;;0.10;0.00;;;21.70;99.90;;;;;;5073810;28;20424;-88
2022/08/09 09:03:15;;;;;;;0.10;0.00;;;21.90;99.90;;;;;;5056447;28;20432;-90
2022/08/09 09:05:41;;;;;;;0.10;0.00;;;22.00;99.90;;;;;;5069210;28;20269;-87
2022/08/09 09:08:08;;;;;;;0.10;0.00;;;22.00;99.90;;;;;;5069860;28;20520;-87
2022/08/09 09:10:34;;;;;;;0.10;0.00;;;22.10;99.90;;;;;;5046707;28;20241;-87
2022/08/09 09:13:01;;;;;;;0.10;0.00;;;22.20;99.90;;;;;;5074181;28;20485;-90
2022/08/09 09:15:26;;;;;;;0.10;0.00;;;22.70;99.90;;;;;;5055886;28;20963;-88
2022/08/09 09:17:52;;;;;;;0.10;0.00;;;23.10;99.90;;;;;;5073540;28;20451;-85
2022/08/09 09:20:17;;;;;;;0.10;0.00;;;23.00;99.90;;;;;;5055365;28;20642;-86
2022/08/09 09:22:52;;;;;;;0.10;0.00;;;22.60;99.90;;;;;;5069076;28;20189;-87
2022/08/09 09:25:42;;;;;;;0.10;0.00;;;22.30;99.90;;;;;;5063106;28;20221;-86
2022/08/09 09:28:10;;;;;;;0.10;0.00;;;22.20;99.90;;;;;;5063022;28;20444;-86
2022/08/09 09:30:52;;;;;;;0.10;0.00;;;22.60;99.90;;;;;;5067832;28;21015;-87
2022/08/09 09:33:18;;;;;;;0.10;0.00;;;23.20;99.90;;;;;;5065215;28;20480;-86
2022/08/09 09:35:52;;;;;;;0.10;0.00;;;23.30;99.90;;;;;;5070733;28;20946;-86
2022/08/09 09:38:20;;;;;;;0.10;0.00;;;23.40;99.90;;;;;;5066953;28;20190;-88
2022/08/09 09:40:45;;;;;;;0.10;0.10;;;23.60;99.90;;;;;;5055403;28;20973;-87
2022/08/09 09:43:20;;;;;;;0.10;0.00;;;23.70;99.90;;;;;;5053786;28;20456;-87
2022/08/09 09:45:52;;;;;;;0.10;0.00;;;23.50;99.90;;;;;;5059102;28;20189;-86
2022/08/09 09:48:19;;;;;;;0.10;0.00;;;23.20;99.90;;;;;;5050826;28;20436;-85
2022/08/09 09:50:47;;;;;;;0.10;0.00;;;23.50;99.90;;;;;;5067370;28;20444;-86
2022/08/09 09:53:15;;;;;;;0.10;0.00;;;23.60;99.90;;;;;;5069076;28;20503;-85
2022/08/09 09:56:13;;;;;;;0.10;0.00;;;23.70;99.90;;;;;;5072834;28;20975;-85
2022/08/09 09:58:45;;;;;;;0.10;0.00;;;23.90;99.90;;;;;;5024142;28;20457;-86
2022/08/09 10:01:20;;;;;;;0.10;0.00;;;23.70;99.90;;;;;;5068179;28;20957;-84
2022/08/09 10:03:48;;;;;;;0.10;0.00;;;24.10;99.90;;;;;;5070940;28;20455;-85
2022/08/09 10:06:13;;;;;;;0.10;0.00;;;24.60;99.90;;;;;;5073604;28;20531;-85
2022/08/09 10:08:40;;;;;;;0.10;0.00;;;24.50;99.90;;;;;;5074237;28;20571;-86
2022/08/09 10:11:22;;;;;;;0.10;0.00;;;24.40;99.90;;;;;;5085100;28;20237;-85
2022/08/09 10:13:49;;;;;;;0.10;0.00;;;24.50;99.90;;;;;;5067615;28;20962;-86
2022/08/09 10:16:15;;;;;;;0.10;0.00;;;24.60;99.90;;;;;;5069780;28;20436;-85
2022/08/09 10:18:52;;;;;;;0.10;0.00;;;24.30;99.90;;;;;;5069475;28;20452;-87
2022/08/09 10:21:18;;;;;;;0.10;0.00;;;24.10;99.90;;;;;;5071585;28;20436;-86
2022/08/09 10:23:44;;;;;;;0.10;0.00;;;24.20;99.90;;;;;;5046035;28;20821;-87
2022/08/09 10:26:10;;;;;;;0.10;0.00;;;24.30;99.90;;;;;;5067001;28;20202;-85
2022/08/09 10:28:37;;;;;;;0.10;0.00;;;24.60;99.90;;;;;;5068138;28;20269;-85
2022/08/09 10:31:02;;;;;;;0.10;0.00;;;24.70;99.90;;;;;;5066734;28;20474;-84
2022/08/09 10:33:28;;;;;;;0.10;0.00;;;24.70;99.90;;;;;;5069443;28;21017;-84
2022/08/09 10:35:55;;;;;;;0.10;0.00;;;25.20;99.90;;;;;;5079607;28;20182;-84
2022/08/09 10:38:21;;;;;;;0.10;0.00;;;25.30;99.90;;;;;;5066818;28;22430;-84
2022/08/09 10:40:47;;;;;;;0.10;0.00;;;25.20;99.90;;;;;;5052918;28;20454;-85
2022/08/09 10:43:12;;;;;;;0.10;0.00;;;25.50;99.90;;;;;;5066545;28;20197;-85
2022/08/09 10:45:43;;;;;;;0.10;0.00;;;25.40;99.90;;;;;;5047203;28;20273;-84
2022/08/09 10:48:39;;;;;;;0.10;0.00;;;25.30;99.90;;;;;;5065402;28;20221;-84
2022/08/09 10:51:26;;;;;;;0.10;0.00;;;25.30;99.90;;;;;;5051432;28;20459;-83
2022/08/09 10:54:01;;;;;;;0.10;0.00;;;25.50;99.90;;;;;;5047774;28;20533;-85
2022/08/09 10:56:32;;;;;;;0.10;0.00;;;25.80;99.90;;;;;;5050375;28;21177;-84
2022/08/09 10:58:59;;;;;;;0.10;0.00;;;25.70;99.90;;;;;;5073031;28;20948;-86
2022/08/09 11:01:31;;;;;;;0.10;0.00;;;25.80;99.90;;;;;;5074814;28;20447;-86
2022/08/09 11:04:09;;;;;;;0.10;0.00;;;25.70;99.90;;;;;;5058330;28;20470;-87
2022/08/09 11:06:38;;;;;;;0.10;0.00;;;26.00;99.90;;;;;;5070378;28;21047;-86
2022/08/09 11:09:06;;;;;;;0.10;0.10;;;26.50;99.90;;;;;;5070711;28;20444;-87
2022/08/09 11:11:54;;;;;;;0.10;0.00;;;26.50;99.90;;;;;;5068284;28;20444;-85
2022/08/09 11:14:32;;;;;;;0.10;0.00;;;27.00;99.90;;;;;;5068728;28;20537;-86
2022/08/09 11:16:58;;;;;;;0.10;0.00;;;26.70;99.90;;;;;;5056287;28;21005;-85
2022/08/09 11:20:00;;;;;;;0.10;0.00;;;27.20;99.90;;;;;;5051628;28;20425;-85
2022/08/09 11:22:43;;;;;;;0.10;0.00;;;26.80;99.90;;;;;;5060238;28;20424;-87
2022/08/09 11:25:11;;;;;;;0.10;0.00;;;27.60;99.90;;;;;;5085720;28;20951;-87
2022/08/09 11:27:39;;;;;;;0.10;0.00;;;27.90;99.90;;;;;;5061027;28;20479;-86
2022/08/09 11:30:06;;;;;;;0.10;0.00;;;28.20;99.90;;;;;;5055962;28;20465;-87
2022/08/09 11:32:46;;;;;;;0.10;0.00;;;28.00;99.90;;;;;;5063645;28;20810;-88
2022/08/09 11:35:26;;;;;;;0.10;0.00;;;28.10;99.90;;;;;;5066362;28;20811;-86
2022/08/09 11:37:58;;;;;;;0.10;0.00;;;27.80;99.90;;;;;;5058633;28;20507;-86
2022/08/09 11:40:29;;;;;;;0.10;0.00;;;27.30;99.90;;;;;;5066021;28;20541;-86
2022/08/09 11:42:57;;;;;;;0.10;0.00;;;27.60;99.90;;;;;;5069645;28;20443;-88
2022/08/09 11:45:31;;;;;;;0.10;0.00;;;27.40;99.90;;;;;;5066724;28;20436;-88
2022/08/09 11:47:59;;;;;;;0.10;0.00;;;27.60;99.90;;;;;;5068836;28;20451;-89
2022/08/09 11:50:27;;;;;;;0.10;0.00;;;27.70;99.90;;;;;;5071941;28;20439;-90
2022/08/09 11:52:58;;;;;;;0.10;0.00;;;28.10;99.90;;;;;;5065928;28;20470;-87
2022/08/09 11:55:34;;;;;;;0.10;0.00;;;28.60;99.90;;;;;;5068151;28;20509;-88
2022/08/09 11:58:01;;;;;;;0.10;0.00;;;28.20;99.90;;;;;;5064588;28;20454;-88
2022/08/09 12:00:29;;;;;;;0.10;0.00;;;28.60;99.90;;;;;;5067453;28;20955;-87
2022/08/09 12:02:56;;;;;;;0.10;0.00;;;28.60;99.90;;;;;;5069702;28;20451;-87
2022/08/09 12:05:35;;;;;;;0.10;0.00;;;28.70;99.90;;;;;;5066797;28;20526;-88
2022/08/09 12:08:06;;;;;;;0.10;0.00;;;28.30;99.90;;;;;;5064562;28;20493;-87
2022/08/09 12:10:32;;;;;;;0.10;0.00;;;28.60;99.90;;;;;;5064278;28;21086;-88
2022/08/09 12:12:59;;;;;;;0.10;0.00;;;28.80;99.90;;;;;;5044231;28;20471;-87
2022/08/09 12:15:26;;;;;;;0.10;0.00;;;29.00;99.90;;;;;;5057821;28;20439;-88
2022/08/09 12:17:53;;;;;;;0.10;0.00;;;29.30;99.90;;;;;;5067259;28;21228;-85
2022/08/09 12:20:22;;;;;;;0.10;0.00;;;29.50;99.90;;;;;;5069064;28;20448;-85
2022/08/09 12:22:53;;;;;;;0.10;0.00;;;30.10;99.90;;;;;;5044926;28;20813;-84
2022/08/09 12:25:19;;;;;;;0.10;0.00;;;30.00;99.90;;;;;;5062786;28;20436;-85
2022/08/09 12:27:44;;;;;;;0.10;0.00;;;30.00;99.90;;;;;;5057890;28;20870;-85
2022/08/09 12:30:12;;;;;;;0.10;0.00;;;29.40;99.90;;;;;;5060261;28;20533;-85
2022/08/09 12:32:38;;;;;;;0.10;0.00;;;29.60;99.90;;;;;;5067139;28;20205;-85
2022/08/09 12:35:05;;;;;;;0.10;0.00;;;29.30;99.90;;;;;;5064116;28;20444;-88
2022/08/09 12:37:38;;;;;;;0.10;0.00;;;29.00;99.90;;;;;;5062175;28;20561;-88
2022/08/09 12:40:10;;;;;;;0.10;0.00;;;29.20;99.90;;;;;;5065846;28;20944;-86
2022/08/09 12:42:41;;;;;;;0.10;0.00;;;29.80;99.90;;;;;;5060820;28;20448;-87
2022/08/09 12:45:08;;;;;;;0.10;0.00;;;29.60;99.90;;;;;;5069920;28;20438;-86
2022/08/09 12:47:34;;;;;;;0.10;0.00;;;29.80;99.90;;;;;;5057020;28;20441;-86
2022/08/09 12:50:18;;;;;;;0.10;0.00;;;29.70;99.90;;;;;;5063745;28;20799;-86
2022/08/09 12:52:47;;;;;;;0.10;0.00;;;29.90;99.90;;;;;;5067410;28;20287;-87
2022/08/09 12:55:31;;;;;;;0.10;0.00;;;30.00;99.90;;;;;;5050802;28;20857;-87